createdAt,value
2022-08-21T00:03:42.956Z,99980.34
2022-08-21T00:08:47.110Z,99984.03
2022-08-21T00:13:51.888Z,99982.28
2022-08-21T00:18:55.286Z,99976.38
2022-08-21T00:23:58.714Z,99966.66
2022-08-21T00:29:04.345Z,99969.28
2022-08-21T00:34:07.875Z,99974.84
2022-08-21T00:39:12.026Z,99973.19
2022-08-21T00:44:17.626Z,99963.69
2022-08-21T00:49:21.163Z,99964.66
2022-08-21T00:54:28.118Z,99958.63
2022-08-21T00:59:37.288Z,99954.28
2022-08-21T01:04:40.800Z,99963.97
2022-08-21T01:09:46.294Z,99971.13
2022-08-21T01:14:51.176Z,99964.22
2022-08-21T01:19:55.135Z,99966.97
2022-08-21T01:24:59.967Z,99965.38
2022-08-21T01:30:12.593Z,99976.06
2022-08-21T01:35:18.216Z,99975.31
2022-08-21T01:40:23.123Z,99978.88
2022-08-21T01:45:26.650Z,99971.19
2022-08-21T01:50:30.075Z,99965.88
2022-08-21T01:55:35.373Z,99962.41
2022-08-21T02:00:38.917Z,99963.41
2022-08-21T02:05:42.360Z,99964.25
2022-08-21T02:10:48.930Z,99973.13
2022-08-21T02:15:52.672Z,99968.88
2022-08-21T02:20:56.634Z,99969.00
2022-08-21T02:26:03.186Z,99981.19
2022-08-21T02:31:08.197Z,99982.13
2022-08-21T02:36:14.180Z,99972.50
2022-08-21T02:41:21.875Z,99975.13
2022-08-21T02:46:25.281Z,99980.31
2022-08-21T02:51:28.671Z,99981.06
2022-08-21T02:56:33.518Z,99979.97
2022-08-21T03:01:38.599Z,99979.00
2022-08-21T03:06:42.071Z,99973.69
2022-08-21T03:11:47.659Z,99972.53
2022-08-21T03:16:51.161Z,99974.91
2022-08-21T03:21:54.582Z,99985.84
2022-08-21T03:26:59.329Z,99998.59
2022-08-21T03:32:03.415Z,100000.97
2022-08-21T03:37:08.109Z,100003.94
2022-08-21T03:42:13.672Z,100000.75
2022-08-21T03:47:17.203Z,99992.50
2022-08-21T03:52:20.637Z,100001.66
2022-08-21T03:57:25.414Z,99993.84
2022-08-21T04:02:28.859Z,99995.88
2022-08-21T04:07:32.468Z,99992.94
2022-08-21T04:12:37.188Z,99988.84
2022-08-21T04:17:40.927Z,99988.84
2022-08-21T04:22:45.442Z,99982.13
2022-08-21T04:27:50.373Z,99985.66
2022-08-21T04:32:54.149Z,99986.53
2022-08-21T04:37:58.198Z,99983.66
2022-08-21T04:43:05.646Z,99992.47
2022-08-21T04:48:14.067Z,99988.56
2022-08-21T04:53:20.990Z,99989.25
2022-08-21T04:58:28.450Z,99966.19
2022-08-21T05:03:34.755Z,99983.94
2022-08-21T05:08:41.349Z,99979.03
2022-08-21T05:13:46.780Z,99984.88
2022-08-21T05:18:50.153Z,99976.78
2022-08-21T05:23:53.283Z,99981.03
2022-08-21T05:28:58.077Z,99979.00
2022-08-21T05:34:01.594Z,99980.59
2022-08-21T05:39:08.834Z,99978.56
2022-08-21T05:44:13.731Z,99979.91
2022-08-21T05:49:17.169Z,99985.56
2022-08-21T05:54:20.526Z,99990.47
2022-08-21T05:59:26.415Z,99970.44
2022-08-21T06:04:30.111Z,99976.09
2022-08-21T06:09:35.028Z,99984.22
2022-08-21T06:14:40.741Z,99969.34
2022-08-21T06:19:44.151Z,99979.63
2022-08-21T06:24:50.202Z,99968.56
2022-08-21T06:29:55.081Z,99962.22
2022-08-21T06:34:58.519Z,99962.56
2022-08-21T06:40:02.625Z,99960.16
2022-08-21T06:45:09.446Z,99961.81
2022-08-21T06:50:14.051Z,99962.63
2022-08-21T06:55:22.292Z,99953.69
2022-08-21T07:00:29.223Z,99949.50
2022-08-21T07:05:32.898Z,99947.44
2022-08-21T07:10:36.323Z,99944.50
2022-08-21T07:15:41.276Z,99953.25
2022-08-21T07:20:45.512Z,99947.09
2022-08-21T07:25:48.893Z,99944.91
2022-08-21T07:30:56.076Z,99945.47
2022-08-21T07:36:01.473Z,99945.09
2022-08-21T07:41:09.237Z,99937.13
2022-08-21T07:46:14.620Z,99945.66
2022-08-21T07:51:19.245Z,99936.09
2022-08-21T07:56:23.795Z,99944.78
2022-08-21T08:01:28.920Z,99932.44
2022-08-21T08:06:32.562Z,99922.00
2022-08-21T08:11:36.029Z,99927.75
2022-08-21T08:16:40.986Z,99927.78
2022-08-21T08:21:44.409Z,99906.84
2022-08-21T08:26:53.709Z,99901.34
2022-08-21T08:31:59.002Z,99902.44
2022-08-21T08:37:02.731Z,99896.63
2022-08-21T08:42:33.886Z,99887.28
2022-08-21T08:47:40.184Z,99880.63
2022-08-21T08:52:48.595Z,99878.75
2022-08-21T08:57:54.086Z,99871.25
2022-08-21T09:03:01.845Z,99877.16
2022-08-21T09:08:36.475Z,99875.22
2022-08-21T09:14:03.338Z,99875.97
2022-08-21T09:19:18.835Z,99877.34
2022-08-21T09:24:34.370Z,99866.41
2022-08-21T09:29:42.127Z,99872.13
2022-08-21T09:34:59.090Z,99876.81
2022-08-21T09:40:03.688Z,99870.47
2022-08-21T09:45:12.855Z,99872.03
2022-08-21T09:50:20.900Z,99882.53
2022-08-21T09:55:52.418Z,99862.13
2022-08-21T10:01:01.579Z,99870.03
2022-08-21T10:06:10.423Z,99861.38
2022-08-21T10:11:16.961Z,99862.91
2022-08-21T10:16:30.751Z,99862.69
2022-08-21T10:21:43.621Z,99858.72
2022-08-21T10:26:56.971Z,99855.88
2022-08-21T10:32:14.271Z,99847.50
2022-08-21T10:37:40.925Z,99847.72
2022-08-21T10:42:54.525Z,99844.50
2022-08-21T10:48:04.815Z,99840.03
2022-08-21T10:53:21.035Z,99843.34
2022-08-21T10:58:31.529Z,99837.97
2022-08-21T11:03:40.124Z,99842.75
2022-08-21T11:08:48.482Z,99839.09
2022-08-21T11:13:57.537Z,99817.88
2022-08-21T11:19:09.046Z,99828.41
2022-08-21T11:24:31.366Z,99820.78
2022-08-21T11:29:39.432Z,99803.78
2022-08-21T11:34:58.439Z,99831.28
2022-08-21T11:40:12.468Z,99826.00
2022-08-21T11:45:23.293Z,99814.63
2022-08-21T11:50:35.174Z,99825.13
2022-08-21T11:55:47.072Z,99815.69
2022-08-21T12:00:55.932Z,99820.78
2022-08-21T12:06:02.659Z,99805.44
2022-08-21T12:11:10.120Z,99800.75
2022-08-21T12:16:17.060Z,99801.50
2022-08-21T12:21:24.757Z,99798.06
2022-08-21T12:26:32.621Z,99797.03
2022-08-21T12:31:36.114Z,99781.69
2022-08-21T12:36:47.005Z,99772.66
2022-08-21T12:42:01.846Z,99764.81
2022-08-21T12:47:15.156Z,99755.25
2022-08-21T12:52:23.871Z,99751.84
2022-08-21T12:57:30.753Z,99768.75
2022-08-21T13:02:40.745Z,99766.53
2022-08-21T13:07:49.241Z,99783.88
2022-08-21T13:12:58.467Z,99772.97
2022-08-21T13:18:06.261Z,99781.72
2022-08-21T13:23:23.605Z,99776.28
2022-08-21T13:28:35.746Z,99788.22
2022-08-21T13:33:41.549Z,99783.03
2022-08-21T13:38:48.635Z,99791.06
2022-08-21T13:44:00.570Z,99774.56
2022-08-21T13:49:07.479Z,99782.47
2022-08-21T13:54:23.612Z,99774.69
2022-08-21T13:59:34.737Z,99768.97
2022-08-21T14:04:44.706Z,99759.16
2022-08-21T14:09:58.106Z,99768.78
2022-08-21T14:15:06.366Z,99763.25
2022-08-21T14:20:14.321Z,99761.84
2022-08-21T14:25:31.512Z,99765.63
2022-08-21T14:30:38.646Z,99765.81
2022-08-21T14:35:42.827Z,99768.50
2022-08-21T14:40:49.512Z,99761.19
2022-08-21T14:45:54.745Z,99761.88
2022-08-21T14:51:00.682Z,99765.81
2022-08-21T14:56:08.047Z,99735.44
2022-08-21T15:01:15.910Z,99754.84
2022-08-21T15:06:22.074Z,99762.94
2022-08-21T15:11:42.227Z,99753.97
2022-08-21T15:16:49.644Z,99751.59
2022-08-21T15:21:53.206Z,99753.97
2022-08-21T15:26:58.226Z,99756.47
2022-08-21T15:32:06.001Z,99738.94
2022-08-21T15:37:10.585Z,99746.03
2022-08-21T15:42:15.036Z,99748.72
2022-08-21T15:47:23.405Z,99751.75
2022-08-21T15:52:27.433Z,99745.88
2022-08-21T15:57:30.989Z,99741.19
2022-08-21T16:02:36.055Z,99739.63
2022-08-21T16:07:40.007Z,99730.16
2022-08-21T16:12:46.044Z,99737.09
2022-08-21T16:17:53.019Z,99736.59
2022-08-21T16:22:58.812Z,99736.66
2022-08-21T16:28:03.627Z,99736.94
2022-08-21T16:33:13.242Z,99723.38
2022-08-21T16:38:17.401Z,99723.72
2022-08-21T16:43:22.018Z,99717.97
2022-08-21T16:48:27.062Z,99714.78
2022-08-21T16:53:30.583Z,99708.00
2022-08-21T16:58:37.035Z,99700.84
2022-08-21T17:03:43.870Z,99713.66
2022-08-21T17:08:52.557Z,99725.44
2022-08-21T17:13:58.694Z,99733.19
2022-08-21T17:19:03.566Z,99743.00
2022-08-21T17:24:07.611Z,99742.63
2022-08-21T17:29:13.369Z,99737.47
2022-08-21T17:34:18.469Z,99756.38
2022-08-21T17:39:26.674Z,99754.13
2022-08-21T17:44:30.651Z,99750.16
2022-08-21T17:49:35.714Z,99752.81
2022-08-21T17:54:41.431Z,99756.78
2022-08-21T17:59:46.141Z,99753.88
2022-08-21T18:04:51.742Z,99756.75
2022-08-21T18:09:56.176Z,99759.81
2022-08-21T18:15:01.479Z,99748.75
2022-08-21T18:20:08.269Z,99755.84
2022-08-21T18:25:12.553Z,99759.28
2022-08-21T18:30:18.576Z,99749.91
2022-08-21T18:35:25.651Z,99752.63
2022-08-21T18:40:29.506Z,99754.59
2022-08-21T18:45:34.646Z,99767.16
2022-08-21T18:50:41.424Z,99768.38
2022-08-21T18:55:46.272Z,99775.53
2022-08-21T19:00:55.662Z,99772.81
2022-08-21T19:06:00.756Z,99771.19
2022-08-21T19:11:05.034Z,99766.66
2022-08-21T19:16:11.156Z,99770.31
2022-08-21T19:21:16.635Z,99771.19
2022-08-21T19:26:20.543Z,99772.97
2022-08-21T19:31:26.131Z,99770.53
2022-08-21T19:36:34.438Z,99770.69
2022-08-21T19:41:42.545Z,99773.41
2022-08-21T19:46:46.651Z,99766.66
2022-08-21T19:51:55.222Z,99759.97
2022-08-21T19:57:03.723Z,99755.72
2022-08-21T20:02:09.374Z,99757.91
2022-08-21T20:07:14.409Z,99765.34
2022-08-21T20:12:18.004Z,99761.16
2022-08-21T20:17:21.861Z,99762.16
2022-08-21T20:22:26.997Z,99753.72
2022-08-21T20:27:30.570Z,99769.19
2022-08-21T20:32:39.980Z,99776.09
2022-08-21T20:43:12.984Z,99766.56
2022-08-21T20:48:23.870Z,99777.69
2022-08-21T20:53:43.831Z,99773.63
2022-08-21T20:58:56.440Z,99772.63
2022-08-21T21:04:10.066Z,99778.63
2022-08-21T21:09:34.418Z,99777.66
2022-08-21T21:14:48.346Z,99770.34
2022-08-21T21:19:57.871Z,99771.00
2022-08-21T21:25:09.296Z,99764.75
2022-08-21T21:30:16.857Z,99773.13
2022-08-21T21:35:36.368Z,99780.50
2022-08-21T21:40:49.774Z,99781.81
2022-08-21T21:46:10.698Z,99774.31
2022-08-21T21:51:24.379Z,99777.28
2022-08-21T21:56:36.463Z,99774.84
2022-08-21T22:01:50.968Z,99779.13
2022-08-21T22:07:01.400Z,99765.25
2022-08-21T22:12:28.049Z,99778.97
2022-08-21T22:17:41.166Z,99771.16
2022-08-21T22:22:46.201Z,99773.56
2022-08-21T22:27:59.154Z,99769.69
2022-08-21T22:33:08.619Z,99772.28
2022-08-21T22:38:20.770Z,99777.03
2022-08-21T22:43:27.469Z,99773.13
2022-08-21T22:48:33.636Z,99775.59
2022-08-21T22:53:40.961Z,99776.25
2022-08-21T22:58:59.311Z,99774.59
2022-08-21T23:04:17.018Z,99776.09
2022-08-21T23:09:30.788Z,99785.63
2022-08-21T23:14:36.239Z,99778.59
2022-08-21T23:19:52.284Z,99781.03
2022-08-21T23:25:04.618Z,99770.75
2022-08-21T23:30:14.979Z,99781.88
2022-08-21T23:35:44.496Z,99783.94
2022-08-21T23:40:56.763Z,99786.19
2022-08-21T23:46:33.375Z,99781.44
2022-08-21T23:51:48.348Z,99783.78
2022-08-21T23:57:11.047Z,99783.00
